Logo AVAMET
Benvolgut visitant, si us plau, ingressa Recuperar contrasenya

VAERSA Teresa de Cofrents Caroig

Dades diàries. Acumulats / Últims 30 dies disponibles

Data Temperatura (°C) Humitat rel. (%) Pressió rel. (hPa) Vent (km/h) Precipitació
Mínima Mitjana Màxima Amplitud
tèrmica
Mínima Mitjana Màxima Mínima Mitjana Màxima Predom. Mitjana Ràfega
màxima
Total
(mm)
Índex-n
Mínima Mitjana Màxima Mínima Mitjana Màxima n
0 a 1
P0 max
mm 5'
Dades mensuals acumulades fins l'últim dia disponible
05/2019 3,7 8,8 13,6 12,7 13,6 18,6 24,1 20,4 0 65 99 0 1.011 1.021   15,2 107,8 33,6
Dades anuals acumulades fins l'últim dia disponible
2019 -2,5 5,0 13,9 7,8 1,6 11,3 24,1 26,6 0 67 99 0 1.016 1.033   23,5 125,5 210,0
Últims 30 dies disponibles
24-05-2019 8,4     11,8     17,8 9,4 40 84 98 1.009 1.010 1.013 E 15,3 59,5 0,0
23-05-2019 13,6     17,7     24,1 10,5 31 52 63 1.011 1.014 1.015 SSO 15,7 56,3 0,0
22-05-2019 12,1     14,5     19,4 7,3 53 61 69 1.014 1.015 1.016 S 8,8 30,6 0,0
21-05-2019 8,6     11,6     19,3 10,7 54 75 96 1.010 1.012 1.015 SSE 8,6 61,2 32,4 0,42 13,10
20-05-2019 9,5     13,5     18,6 9,1 27 55 72 1.009 1.010 1.011 SSE 7,9 32,2 0,0
19-05-2019 7,4     10,9     15,3 7,9 36 54 79 1.008 1.009 1.011 SSO 15,0 54,7 0,0
18-05-2019 8,8     10,7     13,6 4,8 34 54 68 1.006 1.007 1.009 O 15,5 51,5 0,0
17-05-2019 7,3     10,9     14,9 7,6 51 64 85 998 1.003 1.008 ONO 36,3 107,8 0,0
16-05-2019 8,6     12,7     20,0 11,4 63 89 99 1.002 1.007 1.010 SSE 11,6 57,9 0,0
15-05-2019 9,3     16,5     23,6 14,3 38 61 98 1.006 1.008 1.012 S 23,7 49,9 0,0
14-05-2019 8,2     12,7     21,7 13,5 38 62 96 1.012 1.016 1.018 SSE 14,5 51,5 0,0
13-05-2019 8,6     13,3     18,3 9,7 37 65 95 1.015 1.016 1.018 E 13,7 35,4 0,0
12-05-2019 11,1     15,7     22,5 11,4 23 61 83 1.017 1.020 1.021 SE 9,1 27,4 0,0
05-05-2019 7,8     11,0     17,9 10,1 42 56 68 1.011 1.012 1.014 ONO 15,5 57,9 0,0
04-05-2019 3,7     9,5     16,7 13,0 30 63 93 1.010 1.011 1.012 O 17,7 41,8 0,2
02-05-2019 8,2     10,6     13,9 5,7 0 84 98 0 1.001 1.013 E 14,7 30,6 1,0
30-04-2019 8,5     12,0     18,2 9,7 69 86 98 1.013 1.014 1.015 SSE 13,5 32,2 0,0
25-04-2019 5,6     7,9     11,0 5,4 59 85 98 1.007 1.010 1.016 SO 34,4 85,3 3,2 0,20
24-04-2019 1,8     7,4     14,4 12,6 58 79 92 1.001 1.007 1.010 S 20,0 74,0 0,2
23-04-2019 3,7     7,9     12,0 8,3 71 84 96 996 998 1.001 SO 25,3 62,8 1,8 0,26 0,60
22-04-2019 5,1     7,2     10,2 5,1 83 94 99 999 1.001 1.005 SO 21,5 69,2 6,2 0,26 1,20
21-04-2019 4,6     5,2     6,0 1,4 93 98 99 1.005 1.009 1.014 NE 30,1 69,2 33,6 0,42 1,60
20-04-2019 4,9     6,2     8,1 3,2 95 99 99 1.009 1.013 1.015 NE 49,3 107,8 14,8 0,33 1,70
19-04-2019 5,2     7,3     8,5 3,3 85 98 99 1.013 1.014 1.015 E 19,3 82,1 85,6 0,59 4,20
18-04-2019 5,2     6,9     8,3 3,1 98 99 99 1.009 1.012 1.015 E 21,1 64,4 23,6
17-04-2019 6,1     6,4     6,7 0,6 98 98 98 1.018 1.018 1.018 E 19,5 37,0 0,0
16-04-2019 6,3     9,7     13,9 7,6 61 83 97 1.013 1.016 1.018 S 21,8 61,2 0,0
15-04-2019 7,3     12,6     16,7 9,4 56 71 97 1.012 1.012 1.014 S 19,0 43,5 0,0
14-04-2019 8,7     14,2     19,2 10,5 24 46 64 1.012 1.014 1.016 O 29,9 67,6 0,0
13-04-2019 6,8     11,1     17,2 10,4 22 42 58 1.015 1.016 1.016 OSO 16,9 59,5 0,0
Últims 13 mesos disponibles
04/2019 1,5 5,0 8,7 8,1 6,0 11,6 19,2 17,7 42 81 99 998 1.010 1.018 O 25,8 107,8 174,4
12/2018 1,2 5,9 10,9 8,3 2,5 10,9 18,7 17,5 17 65 93 1.011 1.023 1.030 ONO 31,1 106,2 0,2
11/2018 2,7 5,7 9,9 7,7 4,1 10,2 16,8 14,1 25 84 99 999 1.014 1.022 O 28,0 141,6 69,8
Tots els anys disponibles
Precipitació (mm)
Nota sobre les dades: s'avisa a l'usuari de la provisionalitat i no oficialitat d'aquestes dades
Logo AVAMET blanc
Web allotjada a Sollutia
Llicència de Creative CommonsLa web d'AVAMET i els seus continguts estan subjectes a una llicència de
Reconeixement - No Comercial - Compartir igual
Properes estacions: Altea - Club Nàutic d'Altea (Soci), Ontinyent - El Pilar (Soci), Ares del Maestrat (Ajuntament Soci), Catadau - L'Altet (Inforatge)     - - - - -      Últimes estacions: Asp - Poliesportiu (Soci), Jacarilla - centro (MeteOrihuela), Elx - Maitino/Vallverda/Velarde/Matola/Ferriol (Soci TiempoElche.com), Orihuela - Playa Flamenca (MeteOrihuela), - - -